Mc Girk, Missouri
Current Conditions -  °F | °C
As of 8:53 AM on Monday 24 Nov 2014 (Local Time) from KJEF Reporting Station
Overcast Overcast  
Wind Chill: 27°   Ceiling: 3900
Heat Index: 36°   Visibility: 10mi
Dew Point: 26°   Wind: 14mph
Humidity: 67%   Direction: 260°W
Pressure: 29.68"   Gusts: 22mph
Location:  38.6111°N, 92.4808°W
Report Text: KJEF 241453Z 26012G19KT 10SM OVC039 02/M03 A2968 RMK AO2 SLP041 T00221033 51040
Loading
Personal Weather Stations






























Interactive Weather Map New forecast layout! Learn more

10-Day Weather Forecast

Advertisements
Track Severe Weather on mobile